createdAt,value
2023-03-17T00:01:54.463Z,76.40
2023-03-17T00:04:56.312Z,76.50
2023-03-17T00:08:21.252Z,76.40
2023-03-17T00:11:23.431Z,76.80
2023-03-17T00:14:25.299Z,76.80
2023-03-17T00:17:27.200Z,76.40
2023-03-17T00:20:31.891Z,76.20
2023-03-17T00:23:35.179Z,76.70
2023-03-17T00:26:36.819Z,76.60
2023-03-17T00:29:39.908Z,76.30
2023-03-17T00:32:41.578Z,76.40
2023-03-17T00:35:46.366Z,76.20
2023-03-17T00:38:48.518Z,76.20
2023-03-17T00:41:50.137Z,76.40
2023-03-17T00:44:52.123Z,76.90
2023-03-17T00:47:57.882Z,77.00
2023-03-17T00:50:59.654Z,77.50
2023-03-17T00:54:01.518Z,77.90
2023-03-17T00:57:03.158Z,78.20
2023-03-17T01:00:06.545Z,78.30
2023-03-17T01:03:11.447Z,78.50
2023-03-17T01:06:13.712Z,78.60
2023-03-17T01:09:18.339Z,78.70
2023-03-17T01:12:20.692Z,78.80
2023-03-17T01:15:22.992Z,79.10
2023-03-17T01:18:24.690Z,79.60
2023-03-17T01:21:26.475Z,79.80
2023-03-17T01:24:28.500Z,80.00
2023-03-17T01:27:34.965Z,80.60
2023-03-17T01:30:39.251Z,80.40
2023-03-17T01:33:41.345Z,80.50
2023-03-17T01:36:43.127Z,80.10
2023-03-17T01:39:45.414Z,79.80
2023-03-17T01:43:00.268Z,79.80
2023-03-17T01:46:29.119Z,79.80
2023-03-17T01:49:37.364Z,79.80
2023-03-17T01:52:40.376Z,79.80
2023-03-17T01:55:45.464Z,79.90
2023-03-17T01:58:51.355Z,79.70
2023-03-17T02:02:01.375Z,79.60
2023-03-17T02:05:05.818Z,79.30
2023-03-17T02:08:13.153Z,79.30
2023-03-17T02:11:15.211Z,79.60
2023-03-17T02:14:16.780Z,80.00
2023-03-17T02:17:23.610Z,80.30
2023-03-17T02:20:25.136Z,80.50
2023-03-17T02:23:26.808Z,80.20
2023-03-17T02:26:31.529Z,80.10
2023-03-17T02:29:34.937Z,80.00
2023-03-17T02:32:37.467Z,79.80
2023-03-17T02:35:40.696Z,80.30
2023-03-17T02:38:42.423Z,80.60
2023-03-17T02:41:44.028Z,81.00
2023-03-17T02:44:45.662Z,81.20
2023-03-17T02:47:47.930Z,81.20
2023-03-17T02:50:49.573Z,81.80
2023-03-17T02:53:51.408Z,81.90
2023-03-17T02:56:53.088Z,82.10
2023-03-17T02:59:54.710Z,82.30
2023-03-17T03:02:56.869Z,82.60
2023-03-17T03:05:58.715Z,82.90
2023-03-17T03:09:00.640Z,82.90
2023-03-17T03:12:02.671Z,82.60
2023-03-17T03:15:05.382Z,82.60
2023-03-17T03:18:06.970Z,82.90
2023-03-17T03:21:09.541Z,83.30
2023-03-17T03:24:11.505Z,83.80
2023-03-17T03:27:13.096Z,84.40
2023-03-17T03:30:14.831Z,85.10
2023-03-17T03:33:17.368Z,85.70
2023-03-17T03:36:20.773Z,86.00
2023-03-17T03:39:22.389Z,86.00
2023-03-17T03:42:24.013Z,86.50
2023-03-17T03:45:25.765Z,86.60
2023-03-17T03:48:27.796Z,86.70
2023-03-17T03:51:29.467Z,86.70
2023-03-17T03:54:31.056Z,86.90
2023-03-17T03:57:32.613Z,86.70
2023-03-17T04:00:34.238Z,86.60
2023-03-17T04:03:37.478Z,86.70
2023-03-17T04:06:39.593Z,86.70
2023-03-17T04:09:41.404Z,86.50
2023-03-17T04:12:43.772Z,86.40
2023-03-17T04:15:45.440Z,86.70
2023-03-17T04:18:47.275Z,87.00
2023-03-17T04:21:49.400Z,87.30
2023-03-17T04:24:51.319Z,87.40
2023-03-17T04:27:52.906Z,87.90
2023-03-17T04:30:54.607Z,88.00
2023-03-17T04:33:56.582Z,88.30
2023-03-17T04:36:58.216Z,88.00
2023-03-17T04:39:59.804Z,88.40
2023-03-17T04:43:03.482Z,89.10
2023-03-17T04:46:05.528Z,88.90
2023-03-17T04:49:07.212Z,89.30
2023-03-17T04:52:08.872Z,89.10
2023-03-17T04:55:11.888Z,88.80
2023-03-17T04:58:21.097Z,88.50
2023-03-17T05:01:29.706Z,88.60
2023-03-17T05:04:32.472Z,88.80
2023-03-17T05:07:34.324Z,89.40
2023-03-17T05:10:36.155Z,89.60
2023-03-17T05:13:37.899Z,90.00
2023-03-17T05:16:39.534Z,90.30
2023-03-17T05:19:41.224Z,90.70
2023-03-17T05:22:42.946Z,91.10
2023-03-17T05:25:45.663Z,91.50
2023-03-17T05:28:48.323Z,91.80
2023-03-17T05:31:49.892Z,92.30
2023-03-17T05:34:51.976Z,92.30
2023-03-17T05:37:54.028Z,92.50
2023-03-17T05:40:55.693Z,92.70
2023-03-17T05:43:57.307Z,93.10
2023-03-17T05:46:59.646Z,92.90
2023-03-17T05:50:01.742Z,92.70
2023-03-17T05:53:03.368Z,92.70
2023-03-17T05:56:05.200Z,92.40
2023-03-17T05:59:06.759Z,92.20
2023-03-17T06:02:09.019Z,91.70
2023-03-17T06:05:10.737Z,91.70
2023-03-17T06:08:12.964Z,91.30
2023-03-17T06:11:14.515Z,91.20
2023-03-17T06:14:16.133Z,91.10
2023-03-17T06:17:18.122Z,90.80
2023-03-17T06:20:20.070Z,90.00
2023-03-17T06:23:23.519Z,89.30
2023-03-17T06:26:25.182Z,88.80
2023-03-17T06:29:28.610Z,88.80
2023-03-17T06:32:30.631Z,88.70
2023-03-17T06:35:33.466Z,88.80
2023-03-17T06:38:35.699Z,88.40
2023-03-17T06:41:37.317Z,87.80
2023-03-17T06:44:38.891Z,86.60
2023-03-17T06:47:40.518Z,86.10
2023-03-17T06:50:42.176Z,85.70
2023-03-17T06:53:43.767Z,85.00
2023-03-17T06:56:45.673Z,84.00
2023-03-17T06:59:47.274Z,83.60
2023-03-17T07:02:49.551Z,83.70
2023-03-17T07:05:51.988Z,83.90
2023-03-17T07:08:53.684Z,83.80
2023-03-17T07:11:55.361Z,83.40
2023-03-17T07:14:57.936Z,83.10
2023-03-17T07:17:59.527Z,83.10
2023-03-17T07:21:02.360Z,83.20
2023-03-17T07:24:04.404Z,81.80
2023-03-17T07:27:06.076Z,81.40
2023-03-17T07:30:08.692Z,80.80
2023-03-17T07:33:11.270Z,80.60
2023-03-17T07:36:13.086Z,79.90
2023-03-17T07:39:15.536Z,79.50
2023-03-17T07:42:17.555Z,79.60
2023-03-17T07:45:19.146Z,78.50
2023-03-17T07:48:21.099Z,78.10
2023-03-17T07:51:25.265Z,77.90
2023-03-17T07:54:27.637Z,77.80
2023-03-17T07:57:29.707Z,77.00
2023-03-17T08:00:32.082Z,77.20
2023-03-17T08:03:34.276Z,76.00
2023-03-17T08:06:35.885Z,75.00
2023-03-17T08:09:37.526Z,74.90
2023-03-17T08:12:40.600Z,74.70
2023-03-17T08:15:42.458Z,74.10
2023-03-17T08:18:44.387Z,72.00
2023-03-17T08:21:46.101Z,70.90
2023-03-17T08:24:47.703Z,71.20
2023-03-17T08:27:49.322Z,71.60
2023-03-17T08:30:50.981Z,71.90
2023-03-17T08:33:54.244Z,72.10
2023-03-17T08:36:56.513Z,71.50
2023-03-17T08:39:58.862Z,71.40
2023-03-17T08:43:00.494Z,71.30
2023-03-17T08:46:13.803Z,69.60
2023-03-17T08:49:16.400Z,68.90
2023-03-17T08:52:18.184Z,68.60
2023-03-17T08:55:20.668Z,68.70
2023-03-17T08:58:22.293Z,65.80
2023-03-17T09:01:24.769Z,65.60
2023-03-17T09:04:27.896Z,65.30
2023-03-17T09:07:29.512Z,64.80
2023-03-17T09:10:31.472Z,63.20
2023-03-17T09:13:34.426Z,63.60
2023-03-17T09:16:36.096Z,62.70
2023-03-17T09:19:38.723Z,61.30
2023-03-17T09:22:41.346Z,59.30
2023-03-17T09:25:43.299Z,59.00
2023-03-17T09:28:44.885Z,58.30
2023-03-17T09:31:47.446Z,58.90
2023-03-17T09:34:51.396Z,58.70
2023-03-17T09:37:53.284Z,58.30
2023-03-17T09:41:19.715Z,57.60
2023-03-17T09:44:45.183Z,55.40
2023-03-17T09:48:05.872Z,54.40
2023-03-17T09:51:18.406Z,54.50
2023-03-17T09:54:36.213Z,53.10
2023-03-17T09:57:40.266Z,52.70
2023-03-17T10:00:41.884Z,51.90
2023-03-17T10:03:43.487Z,52.50
2023-03-17T10:06:51.933Z,52.20
2023-03-17T10:10:03.044Z,54.20
2023-03-17T10:13:29.424Z,53.70
2023-03-17T10:17:15.297Z,53.50
2023-03-17T10:20:27.040Z,53.20
2023-03-17T10:23:32.219Z,53.50
2023-03-17T10:26:45.974Z,53.40
2023-03-17T10:29:48.663Z,52.60
2023-03-17T10:32:52.397Z,52.50
2023-03-17T10:35:54.055Z,52.20
2023-03-17T10:38:56.027Z,52.00
2023-03-17T10:42:09.298Z,50.80
2023-03-17T10:45:29.471Z,50.20
2023-03-17T10:48:36.300Z,51.50
2023-03-17T10:51:40.464Z,51.20
2023-03-17T10:54:48.549Z,50.80
2023-03-17T10:58:01.894Z,50.80
2023-03-17T11:01:16.123Z,50.40
2023-03-17T11:04:33.623Z,49.90
2023-03-17T11:07:40.657Z,50.00
2023-03-17T11:10:42.440Z,48.60
2023-03-17T11:13:43.998Z,49.10
2023-03-17T11:16:55.795Z,47.50
2023-03-17T11:20:27.573Z,47.80
2023-03-17T11:23:44.108Z,47.80
2023-03-17T11:26:59.153Z,48.30
2023-03-17T11:30:25.236Z,47.80
2023-03-17T11:33:33.615Z,48.10
2023-03-17T11:36:41.310Z,46.90
2023-03-17T11:39:43.142Z,47.30
2023-03-17T11:43:18.953Z,47.50
2023-03-17T11:46:43.415Z,46.50
2023-03-17T11:49:51.984Z,46.40
2023-03-17T11:53:18.266Z,46.10
2023-03-17T11:57:01.209Z,46.20
2023-03-17T12:00:07.363Z,45.80
2023-03-17T12:03:40.168Z,45.80
2023-03-17T12:06:50.538Z,46.20
2023-03-17T12:10:06.579Z,46.40
2023-03-17T12:13:39.762Z,47.40
2023-03-17T12:16:49.638Z,48.80
2023-03-17T12:20:09.809Z,49.00
2023-03-17T12:23:29.713Z,48.50
2023-03-17T12:26:49.337Z,49.70
2023-03-17T12:30:20.782Z,49.50
2023-03-17T12:33:52.496Z,49.70
2023-03-17T12:36:54.231Z,48.90
2023-03-17T12:40:20.155Z,48.80
2023-03-17T12:43:39.987Z,48.80
2023-03-17T12:46:50.535Z,48.90
2023-03-17T12:50:05.671Z,49.40
2023-03-17T12:53:28.396Z,49.60
2023-03-17T12:56:32.533Z,49.30
2023-03-17T12:59:36.322Z,49.10
2023-03-17T13:02:39.680Z,47.40
2023-03-17T13:05:46.957Z,47.80
2023-03-17T13:08:51.955Z,46.60
2023-03-17T13:11:53.875Z,47.10
2023-03-17T13:14:58.455Z,47.00
2023-03-17T13:18:18.312Z,47.20
2023-03-17T13:21:23.260Z,46.20
2023-03-17T13:24:47.280Z,45.30
2023-03-17T13:27:49.857Z,45.40
2023-03-17T13:30:54.995Z,45.40
2023-03-17T13:34:12.709Z,45.20
2023-03-17T13:37:27.486Z,45.20
2023-03-17T13:41:04.275Z,46.30
2023-03-17T13:44:15.559Z,44.90
2023-03-17T13:47:31.124Z,45.30
2023-03-17T13:50:33.739Z,45.40
2023-03-17T13:53:57.276Z,45.50
2023-03-17T13:57:21.798Z,45.10
2023-03-17T14:00:27.758Z,44.90
2023-03-17T14:03:37.826Z,45.60
2023-03-17T14:06:39.864Z,44.40
2023-03-17T14:09:43.397Z,45.00
2023-03-17T14:12:57.766Z,45.10
2023-03-17T14:16:05.485Z,44.30
2023-03-17T14:19:22.968Z,45.30
2023-03-17T14:22:25.246Z,44.70
2023-03-17T14:25:34.541Z,44.40
2023-03-17T14:28:36.940Z,44.20
2023-03-17T14:31:38.535Z,44.60
2023-03-17T14:35:02.003Z,44.90
2023-03-17T14:38:13.365Z,44.60
2023-03-17T14:41:14.927Z,44.40
2023-03-17T14:44:16.845Z,44.30
2023-03-17T14:47:25.212Z,44.70
2023-03-17T14:50:32.369Z,44.10
2023-03-17T14:53:42.902Z,43.80
2023-03-17T14:56:48.537Z,43.70
2023-03-17T14:59:59.009Z,44.10
2023-03-17T15:03:05.479Z,44.00
2023-03-17T15:06:24.248Z,43.80
2023-03-17T15:09:33.135Z,43.80
2023-03-17T15:12:34.780Z,43.90
2023-03-17T15:15:38.872Z,44.60
2023-03-17T15:18:40.502Z,44.80
2023-03-17T15:21:43.092Z,45.20
2023-03-17T15:24:44.652Z,45.40
2023-03-17T15:27:47.420Z,46.00
2023-03-17T15:30:51.749Z,46.10
2023-03-17T15:33:53.474Z,47.90
2023-03-17T15:36:55.594Z,49.70
2023-03-17T15:39:59.012Z,51.10
2023-03-17T15:43:00.774Z,50.20
2023-03-17T15:46:08.343Z,51.50
2023-03-17T15:49:12.314Z,51.10
2023-03-17T15:52:27.695Z,51.20
2023-03-17T15:55:31.088Z,51.10
2023-03-17T15:58:32.902Z,50.40
2023-03-17T16:01:35.289Z,51.80
2023-03-17T16:04:37.004Z,52.00
2023-03-17T16:07:38.721Z,51.70
2023-03-17T16:10:40.885Z,52.30
2023-03-17T16:13:42.655Z,52.60
2023-03-17T16:16:45.791Z,53.00
2023-03-17T16:19:48.764Z,53.50
2023-03-17T16:22:52.373Z,53.40
2023-03-17T16:25:59.299Z,52.90
2023-03-17T16:29:13.585Z,52.70
2023-03-17T16:32:15.306Z,52.50
2023-03-17T16:35:22.292Z,52.80
2023-03-17T16:38:26.740Z,53.20
2023-03-17T16:41:29.458Z,53.10
2023-03-17T16:44:31.818Z,53.00
2023-03-17T16:47:33.387Z,53.70
2023-03-17T16:50:35.181Z,53.20
2023-03-17T16:53:36.737Z,53.00
2023-03-17T16:56:41.014Z,52.70
2023-03-17T16:59:42.651Z,53.50
2023-03-17T17:02:44.979Z,54.20
2023-03-17T17:05:46.721Z,53.80
2023-03-17T17:08:49.374Z,53.60
2023-03-17T17:11:51.037Z,53.70
2023-03-17T17:14:52.585Z,54.20
2023-03-17T17:17:57.738Z,54.60
2023-03-17T17:20:59.322Z,54.40
2023-03-17T17:24:00.989Z,55.00
2023-03-17T17:27:02.583Z,55.60
2023-03-17T17:30:05.713Z,56.00
2023-03-17T17:33:08.455Z,56.00
2023-03-17T17:36:16.162Z,56.60
2023-03-17T17:39:17.833Z,56.90
2023-03-17T17:42:20.479Z,56.70
2023-03-17T17:45:22.468Z,56.70
2023-03-17T17:48:26.153Z,56.50
2023-03-17T17:51:28.674Z,57.00
2023-03-17T17:54:30.389Z,58.10
2023-03-17T17:57:32.050Z,58.60
2023-03-17T18:00:34.025Z,59.40
2023-03-17T18:03:35.893Z,61.00
2023-03-17T18:06:37.497Z,61.50
2023-03-17T18:09:39.196Z,62.80
2023-03-17T18:12:40.761Z,63.10
2023-03-17T18:15:42.749Z,63.00
2023-03-17T18:18:46.125Z,63.20
2023-03-17T18:21:47.765Z,63.90
2023-03-17T18:24:49.861Z,63.60
2023-03-17T18:27:51.706Z,63.90
2023-03-17T18:30:53.913Z,64.20
2023-03-17T18:33:59.915Z,64.30
2023-03-17T18:37:01.874Z,64.60
2023-03-17T18:40:14.455Z,64.50
2023-03-17T18:43:18.326Z,64.40
2023-03-17T18:46:19.940Z,64.60
2023-03-17T18:49:23.964Z,64.60
2023-03-17T18:52:31.489Z,64.20
2023-03-17T18:55:33.289Z,64.10
2023-03-17T18:58:36.183Z,63.90
2023-03-17T19:01:38.263Z,63.70
2023-03-17T19:04:45.949Z,63.70
2023-03-17T19:07:47.704Z,64.00
2023-03-17T19:10:49.690Z,64.30
2023-03-17T19:13:52.360Z,64.70
2023-03-17T19:16:54.001Z,65.20
2023-03-17T19:19:55.757Z,65.80
2023-03-17T19:22:58.258Z,65.60
2023-03-17T19:26:00.409Z,65.50
2023-03-17T19:29:02.069Z,65.40
2023-03-17T19:32:03.811Z,65.40
2023-03-17T19:35:07.420Z,65.40
2023-03-17T19:38:09.791Z,66.00
2023-03-17T19:41:11.704Z,66.30
2023-03-17T19:44:13.365Z,66.40
2023-03-17T19:47:15.426Z,66.50
2023-03-17T19:50:17.174Z,66.40
2023-03-17T19:53:18.735Z,66.60
2023-03-17T19:56:21.088Z,66.50
2023-03-17T19:59:23.440Z,66.90
2023-03-17T20:02:25.027Z,66.70
2023-03-17T20:05:26.639Z,66.50
2023-03-17T20:08:28.204Z,66.50
2023-03-17T20:11:33.606Z,66.50
2023-03-17T20:14:35.193Z,66.70
2023-03-17T20:17:36.885Z,66.90
2023-03-17T20:20:38.525Z,66.80
2023-03-17T20:23:40.171Z,66.90
2023-03-17T20:26:43.229Z,66.90
2023-03-17T20:29:45.328Z,66.90
2023-03-17T20:32:46.892Z,66.90
2023-03-17T20:35:48.609Z,66.60
2023-03-17T20:38:50.712Z,66.60
2023-03-17T20:41:52.360Z,66.60
2023-03-17T20:44:54.015Z,66.70
2023-03-17T20:47:55.950Z,66.60
2023-03-17T20:50:58.218Z,66.70
2023-03-17T20:54:01.583Z,66.70
2023-03-17T20:57:03.186Z,66.80
2023-03-17T21:00:05.338Z,67.00
2023-03-17T21:03:07.180Z,67.00
2023-03-17T21:06:09.576Z,67.20
2023-03-17T21:09:11.128Z,67.30
2023-03-17T21:12:19.396Z,67.70
2023-03-17T21:15:22.801Z,68.00
2023-03-17T21:18:24.481Z,68.30
2023-03-17T21:21:27.209Z,68.20
2023-03-17T21:24:32.306Z,68.40
2023-03-17T21:27:36.794Z,68.30
2023-03-17T21:30:39.128Z,68.30
2023-03-17T21:33:43.374Z,68.50
2023-03-17T21:36:45.153Z,68.90
2023-03-17T21:39:46.755Z,69.80
2023-03-17T21:42:49.235Z,70.50
2023-03-17T21:45:51.433Z,70.50
2023-03-17T21:48:53.981Z,70.50
2023-03-17T21:51:55.685Z,70.60
2023-03-17T21:54:57.354Z,70.70
2023-03-17T21:57:59.121Z,70.70
2023-03-17T22:01:01.379Z,70.90
2023-03-17T22:04:03.103Z,70.90
2023-03-17T22:07:04.743Z,71.10
2023-03-17T22:10:07.159Z,72.00
2023-03-17T22:13:08.785Z,72.20
2023-03-17T22:16:12.339Z,72.20
2023-03-17T22:19:13.982Z,72.20
2023-03-17T22:22:15.854Z,72.40
2023-03-17T22:25:17.543Z,72.60
2023-03-17T22:28:19.449Z,72.80
2023-03-17T22:31:25.459Z,72.80
2023-03-17T22:34:27.448Z,72.80
2023-03-17T22:37:29.052Z,72.80
2023-03-17T22:40:30.922Z,72.60
2023-03-17T22:43:32.756Z,72.60
2023-03-17T22:46:34.803Z,72.70
2023-03-17T22:49:36.628Z,72.70
2023-03-17T22:52:38.616Z,72.70
2023-03-17T22:55:40.220Z,72.70
2023-03-17T22:58:42.620Z,72.90
2023-03-17T23:01:45.794Z,73.10
2023-03-17T23:04:47.376Z,73.10
2023-03-17T23:07:51.380Z,73.20
2023-03-17T23:10:53.986Z,73.20
2023-03-17T23:13:56.376Z,73.10
2023-03-17T23:16:58.032Z,73.00
2023-03-17T23:19:59.678Z,72.90
2023-03-17T23:23:01.361Z,73.00
2023-03-17T23:26:03.051Z,73.00
2023-03-17T23:29:06.888Z,73.20
2023-03-17T23:32:10.254Z,73.30
2023-03-17T23:35:13.443Z,73.50
2023-03-17T23:38:15.055Z,73.40
2023-03-17T23:41:17.366Z,73.60
2023-03-17T23:44:18.934Z,73.60
2023-03-17T23:47:21.230Z,73.60
2023-03-17T23:50:23.568Z,73.50
2023-03-17T23:53:26.375Z,73.40
2023-03-17T23:56:27.943Z,73.30
2023-03-17T23:59:29.563Z,73.20
